Time;durP1;ratioP1;P1;durP2;ratioP2;P2;SDS_P1;SDS_P2;PMS_P1;PMS_P2;Temp;Humidity;BMP_temperature;BMP_pressure;BME280_temperature;BME280_humidity;BME280_pressure;Samples;Min_cycle;Max_cycle;Signal;HPM_P1;HPM_P2
2021/01/08 00:01:58;;;;;;;26.00;12.80;;;-1.60;99.90;;;;;;5032752;28;20472;-73
2021/01/08 00:04:24;;;;;;;34.70;17.47;;;-1.60;99.90;;;;;;5032982;28;20443;-74
2021/01/08 00:06:56;;;;;;;32.43;15.03;;;-1.60;99.90;;;;;;5033110;28;20793;-73
2021/01/08 00:09:22;;;;;;;28.90;14.10;;;-1.50;99.90;;;;;;5032832;28;20420;-73
2021/01/08 00:11:54;;;;;;;23.83;14.43;;;-1.50;99.90;;;;;;5032465;28;20471;-73
2021/01/08 00:14:21;;;;;;;35.10;16.43;;;-1.50;99.90;;;;;;5032805;28;20901;-74
2021/01/08 00:16:48;;;;;;;24.00;12.90;;;-1.50;99.90;;;;;;5032635;28;20430;-73
2021/01/08 00:19:14;;;;;;;29.53;15.80;;;-1.50;99.90;;;;;;5032604;28;20432;-74
2021/01/08 00:21:43;;;;;;;28.30;14.70;;;-1.50;99.90;;;;;;5032361;28;20452;-73
2021/01/08 00:24:11;;;;;;;28.27;14.60;;;-1.50;99.90;;;;;;5032508;28;20435;-73
2021/01/08 00:26:38;;;;;;;25.77;15.60;;;-1.50;99.90;;;;;;5032463;28;20424;-73
2021/01/08 00:29:05;;;;;;;24.73;13.10;;;-1.50;99.90;;;;;;5032098;28;20449;-73
2021/01/08 00:31:38;;;;;;;27.20;15.67;;;-1.50;99.90;;;;;;5031889;28;20463;-73
2021/01/08 00:34:06;;;;;;;26.37;13.73;;;-1.50;99.90;;;;;;5032482;28;20478;-74
2021/01/08 00:36:33;;;;;;;30.10;16.30;;;-1.50;99.90;;;;;;5032336;28;20416;-74
2021/01/08 00:39:01;;;;;;;29.43;15.67;;;-1.40;99.90;;;;;;5032247;28;20427;-73
2021/01/08 00:41:30;;;;;;;23.17;13.80;;;-1.40;99.90;;;;;;5032029;28;20424;-73
2021/01/08 00:43:57;;;;;;;27.33;14.90;;;-1.50;99.90;;;;;;5032079;28;20927;-73
2021/01/08 00:46:34;;;;;;;27.80;14.70;;;-1.50;99.90;;;;;;5031986;28;20443;-73
2021/01/08 00:49:01;;;;;;;27.90;13.97;;;-1.50;99.90;;;;;;5032113;28;20423;-73
2021/01/08 00:51:28;;;;;;;27.00;14.53;;;-1.50;99.90;;;;;;5031214;28;20828;-74
2021/01/08 00:53:55;;;;;;;31.10;14.23;;;-1.50;99.90;;;;;;5031522;28;20864;-73
2021/01/08 00:56:22;;;;;;;30.30;15.70;;;-1.50;99.90;;;;;;5031711;28;20439;-74
2021/01/08 00:58:49;;;;;;;21.93;13.27;;;-1.50;99.90;;;;;;5031479;28;20467;-73
2021/01/08 01:01:17;;;;;;;28.43;15.33;;;-1.50;99.90;;;;;;5031646;28;20436;-74
2021/01/08 01:03:44;;;;;;;33.90;15.27;;;-1.50;99.90;;;;;;5031666;28;20479;-74
2021/01/08 01:06:21;;;;;;;29.37;14.27;;;-1.50;99.90;;;;;;5031786;28;20991;-73
2021/01/08 01:08:47;;;;;;;29.50;15.43;;;-1.50;99.90;;;;;;5032023;28;20431;-73
2021/01/08 01:11:15;;;;;;;30.20;15.90;;;-1.50;99.90;;;;;;5031408;28;20880;-73
2021/01/08 01:13:42;;;;;;;28.00;16.23;;;-1.50;99.90;;;;;;5031559;28;20447;-73
2021/01/08 01:16:10;;;;;;;24.40;14.50;;;-1.50;99.90;;;;;;5031423;28;20428;-73
2021/01/08 01:18:36;;;;;;;31.57;14.90;;;-1.50;99.90;;;;;;5031502;28;20427;-73
2021/01/08 01:21:03;;;;;;;27.07;14.80;;;-1.50;99.90;;;;;;5031440;28;20431;-73
2021/01/08 01:23:30;;;;;;;35.33;15.80;;;-1.50;99.90;;;;;;5031166;28;20510;-74
2021/01/08 01:25:56;;;;;;;27.20;15.10;;;-1.40;99.90;;;;;;5031449;28;20431;-73
2021/01/08 01:28:23;;;;;;;25.93;13.73;;;-1.40;99.90;;;;;;5031173;28;20911;-73
2021/01/08 01:30:50;;;;;;;28.60;15.23;;;-1.40;99.90;;;;;;5031250;28;21390;-73
2021/01/08 01:33:17;;;;;;;28.20;15.67;;;-1.40;99.90;;;;;;5031049;28;20460;-74
2021/01/08 01:35:44;;;;;;;26.50;14.17;;;-1.40;99.90;;;;;;5031254;28;20435;-72
2021/01/08 01:38:10;;;;;;;29.57;15.90;;;-1.40;99.90;;;;;;5031374;28;20447;-73
2021/01/08 01:40:37;;;;;;;29.30;16.70;;;-1.40;99.90;;;;;;5030854;28;20497;-75
2021/01/08 01:43:04;;;;;;;29.43;16.03;;;-1.30;99.90;;;;;;5031074;28;20470;-74
2021/01/08 01:45:30;;;;;;;29.70;15.33;;;-1.40;99.90;;;;;;5030803;28;20435;-73
2021/01/08 01:47:57;;;;;;;31.17;15.30;;;-1.40;99.90;;;;;;5031020;28;20433;-73
2021/01/08 01:50:26;;;;;;;29.50;16.27;;;-1.30;99.90;;;;;;5030933;28;20478;-73
2021/01/08 01:52:53;;;;;;;31.60;17.00;;;-1.30;99.90;;;;;;5030759;28;20455;-73
2021/01/08 01:55:21;;;;;;;30.60;14.37;;;-1.30;99.90;;;;;;5031030;28;20435;-73
2021/01/08 01:57:49;;;;;;;32.07;15.57;;;-1.40;99.90;;;;;;5030897;28;20451;-73
2021/01/08 02:00:17;;;;;;;25.57;16.07;;;-1.40;99.90;;;;;;5030515;28;20467;-74
2021/01/08 02:02:48;;;;;;;29.93;15.57;;;-1.40;99.90;;;;;;5029548;28;20459;-73
2021/01/08 02:05:18;;;;;;;30.90;14.90;;;-1.40;99.90;;;;;;5030878;28;20428;-74
2021/01/08 02:07:54;;;;;;;27.00;12.43;;;-1.40;99.90;;;;;;5031052;28;20909;-73
2021/01/08 02:10:23;;;;;;;24.60;14.77;;;-1.40;99.90;;;;;;5030097;28;20467;-73
2021/01/08 02:12:53;;;;;;;27.50;14.60;;;-1.40;99.90;;;;;;5030495;28;20513;-73
2021/01/08 02:15:20;;;;;;;27.10;15.80;;;-1.40;99.90;;;;;;5030680;28;20581;-73
2021/01/08 02:17:48;;;;;;;26.20;13.43;;;-1.40;99.90;;;;;;5030869;28;21081;-73
2021/01/08 02:20:15;;;;;;;25.10;14.80;;;-1.40;99.90;;;;;;5030688;28;20440;-73
2021/01/08 02:22:49;;;;;;;25.27;14.17;;;-1.40;99.90;;;;;;5030603;28;20452;-74
2021/01/08 02:25:20;;;;;;;23.67;14.33;;;-1.40;99.90;;;;;;5030298;28;20482;-73
2021/01/08 02:28:08;;;;;;;28.77;13.43;;;-1.40;99.90;;;;;;5030646;28;20439;-73
2021/01/08 02:30:37;;;;;;;24.53;12.20;;;-1.40;99.90;;;;;;5030244;28;20479;-74
2021/01/08 02:33:05;;;;;;;24.37;13.43;;;-1.40;99.90;;;;;;5030547;28;20459;-73
2021/01/08 02:35:32;;;;;;;28.20;13.80;;;-1.40;99.90;;;;;;5030514;28;20942;-73
2021/01/08 02:37:59;;;;;;;22.63;12.50;;;-1.40;99.90;;;;;;5030608;28;20937;-72
2021/01/08 02:40:28;;;;;;;22.73;12.47;;;-1.40;99.90;;;;;;5030484;28;20454;-73
2021/01/08 02:42:59;;;;;;;27.23;12.13;;;-1.40;99.90;;;;;;5030381;28;20813;-73
2021/01/08 02:45:25;;;;;;;25.30;14.10;;;-1.40;99.90;;;;;;5030416;28;20928;-73
2021/01/08 02:47:52;;;;;;;23.13;11.80;;;-1.40;99.90;;;;;;5030775;28;20936;-73
2021/01/08 02:50:19;;;;;;;27.67;14.97;;;-1.40;99.90;;;;;;5030361;28;20459;-72
2021/01/08 02:52:49;;;;;;;23.93;12.67;;;-1.50;99.90;;;;;;5030299;28;20935;-73
2021/01/08 02:55:21;;;;;;;23.30;13.10;;;-1.50;99.90;;;;;;5030408;28;20428;-73
2021/01/08 02:57:50;;;;;;;24.77;13.80;;;-1.50;99.90;;;;;;5030608;28;21228;-72
2021/01/08 03:00:18;;;;;;;27.70;13.00;;;-1.50;99.90;;;;;;5030359;28;20431;-73
2021/01/08 03:02:45;;;;;;;24.33;14.33;;;-1.60;99.90;;;;;;5030177;28;20455;-71
2021/01/08 03:05:13;;;;;;;26.90;12.33;;;-1.60;99.90;;;;;;5030460;28;20427;-71
2021/01/08 03:07:42;;;;;;;26.10;14.17;;;-1.70;99.90;;;;;;5030163;28;20428;-71
2021/01/08 03:10:10;;;;;;;28.37;12.83;;;-1.60;99.90;;;;;;5029508;28;20501;-72
2021/01/08 03:12:37;;;;;;;25.93;12.50;;;-1.60;99.90;;;;;;5029933;28;20501;-71
2021/01/08 03:15:11;;;;;;;25.63;13.73;;;-1.60;99.90;;;;;;5029733;28;20436;-71
2021/01/08 03:17:37;;;;;;;32.57;15.30;;;-1.70;99.90;;;;;;5030270;28;20429;-70
2021/01/08 03:20:06;;;;;;;25.03;13.70;;;-1.60;99.90;;;;;;5029357;28;20439;-71
2021/01/08 03:22:32;;;;;;;22.17;13.03;;;-1.60;99.90;;;;;;5031252;28;20447;-70
2021/01/08 03:24:59;;;;;;;27.60;13.80;;;-1.60;99.90;;;;;;5033070;28;20990;-71
2021/01/08 03:27:25;;;;;;;28.40;14.13;;;-1.60;99.90;;;;;;5033536;28;20451;-71
2021/01/08 03:29:52;;;;;;;24.17;12.67;;;-1.60;99.90;;;;;;5033716;28;20839;-71
2021/01/08 03:32:19;;;;;;;28.10;14.60;;;-1.60;99.90;;;;;;5033270;28;20463;-71
2021/01/08 03:34:46;;;;;;;24.67;13.23;;;-1.60;99.90;;;;;;5033546;28;20781;-71
2021/01/08 03:37:13;;;;;;;19.57;11.23;;;-1.60;99.90;;;;;;5033502;28;20434;-71
2021/01/08 03:39:39;;;;;;;24.43;12.53;;;-1.60;99.90;;;;;;5033493;28;20424;-72
2021/01/08 03:42:06;;;;;;;26.43;14.40;;;-1.60;99.90;;;;;;5033063;28;20452;-72
2021/01/08 03:44:32;;;;;;;24.23;13.77;;;-1.60;99.90;;;;;;5033322;28;20478;-71
2021/01/08 03:46:59;;;;;;;30.30;14.43;;;-1.60;99.90;;;;;;5033233;28;20451;-71
2021/01/08 03:49:27;;;;;;;29.50;14.67;;;-1.60;99.90;;;;;;5033256;28;20924;-72
2021/01/08 03:51:53;;;;;;;29.20;15.93;;;-1.60;99.90;;;;;;5032915;28;20475;-71
2021/01/08 03:54:20;;;;;;;22.90;12.50;;;-1.70;99.90;;;;;;5033315;28;20431;-72
2021/01/08 03:56:46;;;;;;;29.90;13.53;;;-1.70;99.90;;;;;;5033507;28;20789;-72
2021/01/08 03:59:13;;;;;;;27.03;15.60;;;-1.70;99.90;;;;;;5032930;28;20431;-72
2021/01/08 04:01:40;;;;;;;22.57;13.30;;;-1.60;99.90;;;;;;5032535;28;20439;-71
2021/01/08 04:04:06;;;;;;;28.13;13.20;;;-1.70;99.90;;;;;;5032608;28;20439;-71
2021/01/08 04:06:35;;;;;;;27.83;12.10;;;-1.60;99.90;;;;;;5033026;28;20431;-71
2021/01/08 04:09:01;;;;;;;24.27;14.77;;;-1.60;99.90;;;;;;5033036;28;20526;-72
2021/01/08 04:11:28;;;;;;;25.93;13.10;;;-1.60;99.90;;;;;;5032506;28;20486;-71
2021/01/08 04:13:55;;;;;;;26.30;14.00;;;-1.70;99.90;;;;;;5032756;28;20821;-71
2021/01/08 04:16:21;;;;;;;23.83;13.70;;;-1.60;99.90;;;;;;5032940;28;20436;-72
2021/01/08 04:18:48;;;;;;;23.90;13.17;;;-1.70;99.90;;;;;;5032723;28;20482;-71
2021/01/08 04:21:16;;;;;;;29.80;14.43;;;-1.70;99.90;;;;;;5032518;28;20431;-71
2021/01/08 04:23:43;;;;;;;24.17;11.73;;;-1.70;99.90;;;;;;5032458;28;20448;-71
2021/01/08 04:26:10;;;;;;;27.67;12.57;;;-1.70;99.90;;;;;;5032555;28;20947;-71
2021/01/08 04:28:37;;;;;;;25.90;14.80;;;-1.80;99.90;;;;;;5032403;28;20460;-71
2021/01/08 04:31:03;;;;;;;23.93;12.90;;;-1.70;99.90;;;;;;5032476;28;20816;-71
2021/01/08 04:33:30;;;;;;;20.27;12.77;;;-1.70;99.90;;;;;;5031554;28;20452;-71
2021/01/08 04:35:56;;;;;;;24.83;12.50;;;-1.70;99.90;;;;;;5032334;28;20439;-71
2021/01/08 04:38:23;;;;;;;26.23;12.63;;;-1.70;99.90;;;;;;5032176;28;20425;-70
2021/01/08 04:40:51;;;;;;;25.10;14.03;;;-1.80;99.90;;;;;;5032144;28;20489;-71
2021/01/08 04:43:18;;;;;;;20.87;12.07;;;-1.80;99.90;;;;;;5032138;28;20464;-70
2021/01/08 04:45:44;;;;;;;18.50;9.37;;;-1.80;99.90;;;;;;5032409;28;20439;-70
2021/01/08 04:48:14;;;;;;;19.40;11.80;;;-1.80;99.90;;;;;;5032240;28;20454;-70
2021/01/08 04:50:42;;;;;;;22.57;12.70;;;-1.80;99.90;;;;;;5031808;28;20470;-70
2021/01/08 04:53:10;;;;;;;22.13;11.87;;;-1.80;99.90;;;;;;5031736;28;20448;-70
2021/01/08 04:55:37;;;;;;;26.13;13.27;;;-1.80;99.90;;;;;;5032066;28;20940;-71
2021/01/08 04:58:06;;;;;;;25.70;12.57;;;-1.80;99.90;;;;;;5032047;28;20420;-71
2021/01/08 05:00:35;;;;;;;26.03;13.60;;;-1.80;99.90;;;;;;5031975;28;20432;-71
2021/01/08 05:03:02;;;;;;;24.50;13.47;;;-1.80;99.90;;;;;;5031700;28;20946;-72
2021/01/08 05:05:28;;;;;;;23.17;12.47;;;-1.80;99.90;;;;;;5031797;28;20995;-72
2021/01/08 05:07:55;;;;;;;28.83;12.57;;;-1.80;99.90;;;;;;5031887;28;20440;-73
2021/01/08 05:10:22;;;;;;;24.93;13.30;;;-1.90;99.90;;;;;;5031496;28;20435;-72
2021/01/08 05:12:52;;;;;;;17.33;10.73;;;-1.90;99.90;;;;;;5031011;28;20813;-72
2021/01/08 05:15:25;;;;;;;24.47;10.57;;;-1.90;99.90;;;;;;5030675;28;20501;-71
2021/01/08 05:17:51;;;;;;;19.57;10.80;;;-1.90;99.90;;;;;;5031598;28;20498;-71
2021/01/08 05:20:18;;;;;;;20.30;11.33;;;-1.80;99.90;;;;;;5031505;28;20423;-72
2021/01/08 05:22:45;;;;;;;24.40;11.63;;;-1.90;99.90;;;;;;5031316;28;20452;-71
2021/01/08 05:25:13;;;;;;;18.93;10.83;;;-1.80;99.90;;;;;;5031424;28;20436;-72
2021/01/08 05:27:40;;;;;;;24.27;13.10;;;-1.90;99.90;;;;;;5031291;28;20447;-72
2021/01/08 05:30:17;;;;;;;26.47;13.60;;;-1.90;99.90;;;;;;5031190;28;20439;-72
2021/01/08 05:32:45;;;;;;;21.67;13.13;;;-1.80;99.90;;;;;;5031028;28;20478;-72
2021/01/08 05:35:16;;;;;;;17.50;10.47;;;-1.80;99.90;;;;;;5031148;28;20454;-72
2021/01/08 05:37:44;;;;;;;22.10;11.47;;;-1.80;99.90;;;;;;5031684;28;20502;-74
2021/01/08 05:40:12;;;;;;;20.07;11.80;;;-1.90;99.90;;;;;;5019338;28;20483;-74
2021/01/08 05:42:56;;;;;;;19.30;11.40;;;-1.90;99.90;;;;;;5012414;28;20853;-74
2021/01/08 05:45:23;;;;;;;25.30;12.43;;;-1.80;99.90;;;;;;5011703;28;20440;-74
2021/01/08 05:47:52;;;;;;;16.17;10.30;;;-1.80;99.90;;;;;;5011727;28;20428;-74
2021/01/08 05:50:21;;;;;;;18.90;11.80;;;-1.80;99.90;;;;;;5011505;28;20448;-74
2021/01/08 05:52:51;;;;;;;21.23;11.63;;;-1.90;99.90;;;;;;5011761;28;20822;-74
2021/01/08 05:55:18;;;;;;;17.60;10.57;;;-1.90;99.90;;;;;;5011175;28;20490;-74
2021/01/08 05:57:45;;;;;;;15.17;8.87;;;-1.90;99.90;;;;;;5012004;28;20783;-74
2021/01/08 06:00:12;;;;;;;22.83;11.80;;;-1.90;99.90;;;;;;5011774;28;20450;-74
2021/01/08 06:02:39;;;;;;;22.57;11.13;;;-1.90;99.90;;;;;;5018312;28;20941;-74
2021/01/08 06:05:08;;;;;;;20.13;10.70;;;-1.90;99.90;;;;;;5031870;28;20424;-74
2021/01/08 06:07:37;;;;;;;15.10;9.13;;;-1.90;99.90;;;;;;5031738;28;20477;-74
2021/01/08 06:10:05;;;;;;;22.40;11.40;;;-1.90;99.90;;;;;;5031651;28;20435;-74
2021/01/08 06:12:37;;;;;;;22.20;11.90;;;-1.90;99.90;;;;;;5031365;28;20960;-74
2021/01/08 06:15:08;;;;;;;21.50;11.93;;;-1.90;99.90;;;;;;5031481;28;20455;-74
2021/01/08 06:17:36;;;;;;;21.73;12.63;;;-1.90;99.90;;;;;;5031395;28;20428;-75
2021/01/08 06:20:05;;;;;;;23.80;10.20;;;-1.80;99.90;;;;;;5031482;28;20983;-74
2021/01/08 06:22:40;;;;;;;19.20;10.43;;;-1.80;99.90;;;;;;5030377;28;20474;-74
2021/01/08 06:25:09;;;;;;;21.20;11.10;;;-1.80;99.90;;;;;;5031435;28;20900;-74
2021/01/08 06:27:36;;;;;;;15.97;9.87;;;-1.90;99.90;;;;;;5031289;28;20493;-74
2021/01/08 06:30:06;;;;;;;15.03;10.50;;;-1.90;99.90;;;;;;5031398;28;20448;-74
2021/01/08 06:32:35;;;;;;;22.90;12.17;;;-1.90;99.90;;;;;;5031041;28;20487;-74
2021/01/08 06:35:05;;;;;;;10.97;7.73;;;-1.80;99.90;;;;;;5031508;28;20424;-74
2021/01/08 06:37:43;;;;;;;18.50;11.03;;;-1.80;99.90;;;;;;5031479;28;20459;-74
2021/01/08 06:40:12;;;;;;;17.60;9.40;;;-1.80;99.90;;;;;;5031421;28;20431;-74
2021/01/08 06:42:46;;;;;;;18.93;10.20;;;-1.80;99.90;;;;;;5031202;28;20452;-74
2021/01/08 06:45:16;;;;;;;21.40;10.70;;;-1.80;99.90;;;;;;5031416;28;20447;-74
2021/01/08 06:47:45;;;;;;;19.57;10.20;;;-1.90;99.90;;;;;;5031246;28;20443;-74
2021/01/08 06:50:17;;;;;;;14.73;9.40;;;-1.90;99.90;;;;;;5031253;28;20482;-73
2021/01/08 06:52:46;;;;;;;17.93;10.07;;;-1.90;99.90;;;;;;5030767;28;20474;-74
2021/01/08 06:55:21;;;;;;;20.63;10.50;;;-1.90;99.90;;;;;;5031003;28;20434;-74
2021/01/08 06:57:53;;;;;;;19.20;12.43;;;-2.00;99.90;;;;;;5033515;28;20435;-74
2021/01/08 07:00:27;;;;;;;20.53;11.00;;;-1.90;99.90;;;;;;5035463;28;20443;-74
2021/01/08 07:03:00;;;;;;;20.00;12.13;;;-1.90;99.90;;;;;;5034753;28;20460;-74
2021/01/08 07:05:27;;;;;;;17.70;10.30;;;-1.80;99.90;;;;;;5035311;28;20447;-73
2021/01/08 07:07:56;;;;;;;15.33;10.10;;;-1.90;99.90;;;;;;5035270;28;20986;-74
2021/01/08 07:10:23;;;;;;;15.93;8.80;;;-1.90;99.90;;;;;;5035131;28;20451;-74
2021/01/08 07:12:53;;;;;;;17.43;10.70;;;-1.80;99.90;;;;;;5034839;28;20452;-74
2021/01/08 07:15:21;;;;;;;16.07;8.50;;;-1.80;99.90;;;;;;5034865;28;20482;-74
2021/01/08 07:17:54;;;;;;;17.50;11.27;;;-1.90;99.90;;;;;;5033850;28;20446;-74
2021/01/08 07:20:21;;;;;;;16.17;10.23;;;-1.90;99.90;;;;;;5034735;28;21009;-74
2021/01/08 07:22:52;;;;;;;17.47;8.80;;;-1.90;99.90;;;;;;5034316;28;20455;-74
2021/01/08 07:25:23;;;;;;;12.47;6.93;;;-1.90;99.90;;;;;;5034412;28;20423;-74
2021/01/08 07:27:51;;;;;;;13.90;8.80;;;-1.90;99.90;;;;;;5033914;28;20903;-73
2021/01/08 07:30:19;;;;;;;15.77;10.13;;;-2.00;99.90;;;;;;5033934;28;20432;-75
2021/01/08 07:32:50;;;;;;;17.00;9.13;;;-2.00;99.90;;;;;;5034444;28;20447;-74
2021/01/08 07:35:22;;;;;;;17.53;9.53;;;-2.00;99.90;;;;;;5034263;28;20434;-74
2021/01/08 07:37:59;;;;;;;20.43;11.33;;;-2.00;99.90;;;;;;5033651;28;20432;-73
2021/01/08 07:40:28;;;;;;;21.50;11.27;;;-1.90;99.90;;;;;;5033397;28;20428;-72
2021/01/08 07:42:59;;;;;;;30.47;12.20;;;-1.70;99.90;;;;;;5033307;28;20452;-74
2021/01/08 07:45:47;;;;;;;18.83;10.80;;;-1.60;99.90;;;;;;5033628;28;20428;-71
2021/01/08 07:48:21;;;;;;;19.23;9.63;;;-1.60;99.90;;;;;;5033408;28;20428;-70
2021/01/08 07:50:58;;;;;;;19.40;11.20;;;-1.60;99.90;;;;;;5032867;28;20466;-72
2021/01/08 07:53:44;;;;;;;24.07;11.77;;;-1.60;99.90;;;;;;5033020;28;20463;-73
2021/01/08 07:56:13;;;;;;;19.90;11.40;;;-1.70;99.90;;;;;;5033283;28;20956;-72
2021/01/08 07:58:40;;;;;;;20.67;9.80;;;-1.70;99.90;;;;;;5033087;28;20432;-70
2021/01/08 08:01:07;;;;;;;20.73;9.93;;;-1.70;99.90;;;;;;5032892;28;20439;-70
2021/01/08 08:03:35;;;;;;;17.17;10.87;;;-1.60;99.90;;;;;;5032733;28;20455;-71
2021/01/08 08:06:02;;;;;;;18.63;10.43;;;-1.60;99.90;;;;;;5032908;28;20432;-71
2021/01/08 08:08:29;;;;;;;18.33;11.17;;;-1.60;99.90;;;;;;5031784;28;20451;-71
2021/01/08 08:11:08;;;;;;;20.27;11.47;;;-1.60;99.90;;;;;;5032605;28;20471;-72
2021/01/08 08:13:36;;;;;;;20.07;11.23;;;-1.50;99.90;;;;;;5032883;28;20448;-72
2021/01/08 08:16:04;;;;;;;15.93;10.03;;;-1.50;99.90;;;;;;5033147;28;20490;-71
2021/01/08 08:18:31;;;;;;;19.80;11.47;;;-1.50;99.90;;;;;;5031861;28;20454;-71
2021/01/08 08:21:08;;;;;;;18.27;10.87;;;-1.50;99.90;;;;;;5032315;28;20469;-71
2021/01/08 08:23:38;;;;;;;20.37;10.13;;;-1.50;99.90;;;;;;5032649;28;20447;-70
2021/01/08 08:26:05;;;;;;;22.33;12.83;;;-1.40;99.90;;;;;;5032970;28;20436;-71
2021/01/08 08:28:32;;;;;;;16.90;10.77;;;-1.40;99.90;;;;;;5032256;28;20444;-71
2021/01/08 08:31:01;;;;;;;17.23;9.80;;;-1.50;99.90;;;;;;5032321;28;20471;-70
2021/01/08 08:33:28;;;;;;;17.03;9.50;;;-1.60;99.90;;;;;;5032702;28;20463;-71
2021/01/08 08:35:54;;;;;;;19.93;11.80;;;-1.50;99.90;;;;;;5032423;28;20438;-71
2021/01/08 08:38:21;;;;;;;18.20;11.13;;;-1.50;99.90;;;;;;5032408;28;20436;-71
2021/01/08 08:40:48;;;;;;;20.57;10.30;;;-1.40;99.90;;;;;;5032116;28;20806;-72
2021/01/08 08:43:23;;;;;;;17.93;10.60;;;-1.40;99.90;;;;;;5032244;28;20470;-72
2021/01/08 08:45:57;;;;;;;19.80;11.77;;;-1.40;99.90;;;;;;5032161;28;20490;-71
2021/01/08 08:48:25;;;;;;;15.20;10.10;;;-1.40;99.90;;;;;;5032260;28;20912;-70
2021/01/08 08:50:51;;;;;;;17.87;11.53;;;-1.40;99.90;;;;;;5031733;28;20820;-72
2021/01/08 08:53:18;;;;;;;13.87;9.10;;;-1.30;99.90;;;;;;5031991;28;20447;-71
2021/01/08 08:55:47;;;;;;;21.43;10.10;;;-1.40;99.90;;;;;;5031958;28;20481;-71
2021/01/08 08:58:15;;;;;;;15.43;8.77;;;-1.40;99.90;;;;;;5032307;28;20432;-70
2021/01/08 09:00:42;;;;;;;15.50;10.00;;;-1.40;99.90;;;;;;5031651;28;20432;-71
2021/01/08 09:03:16;;;;;;;21.53;11.40;;;-1.40;99.90;;;;;;5026260;28;20511;-71
2021/01/08 09:05:45;;;;;;;18.30;9.93;;;-1.40;99.90;;;;;;5011999;28;20437;-71
2021/01/08 09:08:20;;;;;;;12.90;8.73;;;-1.30;99.90;;;;;;5012143;28;20440;-71
2021/01/08 09:10:58;;;;;;;15.53;8.23;;;-1.30;99.90;;;;;;5011671;28;21007;-71
2021/01/08 09:13:38;;;;;;;22.80;11.47;;;-1.40;99.90;;;;;;5012332;28;20957;-72
2021/01/08 09:16:12;;;;;;;15.93;9.60;;;-1.40;99.90;;;;;;5012228;28;20425;-71
2021/01/08 09:18:44;;;;;;;21.50;10.30;;;-1.50;99.90;;;;;;5016878;28;20455;-70
2021/01/08 09:21:20;;;;;;;22.10;13.17;;;-1.50;99.90;;;;;;5042558;28;20426;-75
2021/01/08 09:23:48;;;;;;;19.77;11.93;;;-1.50;99.90;;;;;;5051249;28;20442;-72
2021/01/08 09:26:17;;;;;;;15.43;9.57;;;-1.50;99.90;;;;;;5011571;28;20465;-71
2021/01/08 09:28:45;;;;;;;23.30;12.30;;;-1.50;99.90;;;;;;5011667;28;20914;-71
2021/01/08 09:31:13;;;;;;;19.67;12.37;;;-1.40;99.90;;;;;;5010952;28;20480;-71
2021/01/08 09:33:40;;;;;;;20.67;14.70;;;-1.30;99.90;;;;;;5026126;28;20479;-70
2021/01/08 09:36:09;;;;;;;18.87;11.73;;;-1.30;99.90;;;;;;5028299;28;20442;-69
2021/01/08 09:38:47;;;;;;;17.53;10.90;;;-1.30;99.90;;;;;;5015342;28;20441;-70
2021/01/08 09:41:15;;;;;;;26.53;11.30;;;-1.20;99.90;;;;;;5011142;28;20428;-70
2021/01/08 09:43:42;;;;;;;19.80;11.53;;;-1.30;99.90;;;;;;5011219;28;20444;-69
2021/01/08 09:46:08;;;;;;;23.23;13.43;;;-1.30;99.90;;;;;;5022240;28;20460;-71
2021/01/08 09:48:39;;;;;;;11.67;7.87;;;-1.30;99.90;;;;;;5030828;28;20439;-71
2021/01/08 09:51:07;;;;;;;18.50;10.50;;;-1.40;99.90;;;;;;5030683;28;20543;-70
2021/01/08 09:53:35;;;;;;;17.50;11.13;;;-1.30;99.90;;;;;;5030848;28;20892;-71
2021/01/08 09:56:13;;;;;;;16.30;10.43;;;-1.30;99.90;;;;;;5030555;28;20435;-70
2021/01/08 09:58:40;;;;;;;17.00;10.13;;;-1.30;99.90;;;;;;5029865;28;20782;-70
2021/01/08 10:01:08;;;;;;;22.20;11.27;;;-1.40;99.90;;;;;;5030526;28;20439;-70
2021/01/08 10:03:34;;;;;;;19.80;10.47;;;-1.30;99.90;;;;;;5030614;28;20447;-70
2021/01/08 10:06:02;;;;;;;17.10;9.67;;;-1.30;99.90;;;;;;5030477;28;20955;-69
2021/01/08 10:08:29;;;;;;;17.50;9.90;;;-1.20;99.90;;;;;;5030565;28;20435;-70
2021/01/08 10:10:57;;;;;;;22.03;9.77;;;-1.20;99.90;;;;;;5029989;28;20467;-69
2021/01/08 10:13:25;;;;;;;19.67;10.20;;;-1.10;99.90;;;;;;5030145;28;20475;-72
2021/01/08 10:15:56;;;;;;;17.73;10.60;;;-1.20;99.90;;;;;;5030546;28;20497;-70
2021/01/08 10:18:25;;;;;;;18.13;11.73;;;-1.20;99.90;;;;;;5030420;28;20440;-70
2021/01/08 10:20:53;;;;;;;22.40;11.50;;;-1.20;99.90;;;;;;5030055;28;20432;-70
2021/01/08 10:23:23;;;;;;;16.87;11.20;;;-1.20;99.90;;;;;;5030334;28;20460;-71
2021/01/08 10:25:50;;;;;;;18.97;12.47;;;-1.20;99.90;;;;;;5030346;28;20435;-70
2021/01/08 10:28:19;;;;;;;18.13;10.97;;;-1.10;99.90;;;;;;5030214;28;20805;-71
2021/01/08 10:30:49;;;;;;;17.83;11.50;;;-1.00;99.90;;;;;;5029962;28;20439;-70
2021/01/08 10:33:16;;;;;;;15.63;11.47;;;-0.90;99.90;;;;;;5032506;28;20497;-70
2021/01/08 10:35:47;;;;;;;16.77;11.60;;;-0.80;99.90;;;;;;5033953;28;20434;-71
2021/01/08 10:38:14;;;;;;;19.03;11.10;;;-0.70;99.90;;;;;;5033401;28;20443;-70
2021/01/08 10:40:41;;;;;;;24.93;12.70;;;-0.50;99.90;;;;;;5034017;28;20428;-70
2021/01/08 10:43:08;;;;;;;22.13;12.57;;;-0.60;99.90;;;;;;5034283;28;20821;-70
2021/01/08 10:45:35;;;;;;;19.17;11.23;;;-0.60;99.90;;;;;;5034361;28;20944;-71
2021/01/08 10:48:03;;;;;;;16.93;11.10;;;-0.50;99.90;;;;;;5034125;28;20432;-70
2021/01/08 10:50:30;;;;;;;19.30;11.93;;;-0.60;99.90;;;;;;5034149;28;20432;-71
2021/01/08 10:52:56;;;;;;;21.47;12.90;;;-0.50;99.90;;;;;;5023069;28;20473;-70
2021/01/08 10:55:23;;;;;;;23.00;10.43;;;-0.50;99.90;;;;;;5034357;28;20431;-71
2021/01/08 10:57:53;;;;;;;16.03;9.77;;;-0.50;99.90;;;;;;5034129;28;20428;-68
2021/01/08 11:00:21;;;;;;;21.50;10.57;;;-0.60;99.90;;;;;;5033952;28;20518;-72
2021/01/08 11:02:48;;;;;;;20.30;12.53;;;-0.60;99.90;;;;;;5033981;28;21005;-71
2021/01/08 11:05:15;;;;;;;17.67;11.37;;;-0.50;99.90;;;;;;5033860;28;20932;-70
2021/01/08 11:07:42;;;;;;;17.23;10.10;;;-0.50;99.90;;;;;;5033523;28;20432;-71
2021/01/08 11:10:10;;;;;;;18.57;10.43;;;-0.50;99.90;;;;;;5033800;28;20443;-71
2021/01/08 11:12:37;;;;;;;19.00;10.17;;;-0.50;99.90;;;;;;5034401;28;20471;-71
2021/01/08 11:15:05;;;;;;;21.00;10.60;;;-0.60;99.90;;;;;;5053557;28;20457;-71
2021/01/08 11:17:34;;;;;;;17.33;10.07;;;-0.50;99.90;;;;;;5053609;28;20431;-70
2021/01/08 11:20:04;;;;;;;17.10;9.30;;;-0.50;99.90;;;;;;5053777;28;20419;-71
2021/01/08 11:22:32;;;;;;;17.10;9.87;;;-0.60;99.90;;;;;;5041739;28;20463;-70
2021/01/08 11:25:01;;;;;;;22.27;12.37;;;-0.60;99.90;;;;;;5033448;28;20435;-71
2021/01/08 11:27:28;;;;;;;17.27;10.20;;;-0.70;99.90;;;;;;5033298;28;20443;-72
2021/01/08 11:29:55;;;;;;;15.87;10.57;;;-0.60;99.90;;;;;;5033549;28;20427;-71
2021/01/08 11:32:22;;;;;;;15.13;8.57;;;-0.70;99.90;;;;;;5032985;28;20983;-72
2021/01/08 11:34:49;;;;;;;17.77;10.03;;;-0.70;99.90;;;;;;5033298;28;20428;-70
2021/01/08 11:37:15;;;;;;;18.13;10.43;;;-0.70;99.90;;;;;;5033247;28;20458;-70
2021/01/08 11:39:43;;;;;;;20.27;11.63;;;-0.70;99.90;;;;;;5033104;28;20443;-70
2021/01/08 11:42:10;;;;;;;17.20;11.17;;;-0.70;99.90;;;;;;5033128;28;20629;-70
2021/01/08 11:44:37;;;;;;;16.87;10.03;;;-0.70;99.90;;;;;;5033033;28;20432;-71
2021/01/08 11:47:03;;;;;;;17.80;10.63;;;-0.60;99.90;;;;;;5032897;28;20424;-71
2021/01/08 11:49:30;;;;;;;17.37;10.90;;;-0.70;99.90;;;;;;5033142;28;20435;-70
2021/01/08 11:51:57;;;;;;;16.47;10.67;;;-0.70;99.90;;;;;;5032631;28;20498;-70
2021/01/08 11:54:24;;;;;;;19.00;11.30;;;-0.70;99.90;;;;;;5032997;28;20443;-70
2021/01/08 11:56:51;;;;;;;19.20;10.70;;;-0.60;99.90;;;;;;5033167;28;21001;-69
2021/01/08 11:59:18;;;;;;;16.93;9.80;;;-0.50;99.90;;;;;;5033110;28;20448;-69
2021/01/08 12:01:46;;;;;;;20.57;12.87;;;-0.70;99.90;;;;;;5032880;28;20458;-68
2021/01/08 12:04:13;;;;;;;14.40;9.03;;;-0.80;99.90;;;;;;5033002;28;21036;-69
2021/01/08 12:06:40;;;;;;;22.20;12.07;;;-0.90;99.90;;;;;;5033003;28;21147;-69
2021/01/08 12:09:10;;;;;;;18.80;10.07;;;-1.00;99.90;;;;;;5028040;28;20440;-70
2021/01/08 12:11:38;;;;;;;21.57;9.70;;;-0.90;99.90;;;;;;5024520;28;20528;-69
2021/01/08 12:14:05;;;;;;;20.50;11.03;;;-0.90;99.90;;;;;;5023476;28;20442;-70
2021/01/08 12:16:34;;;;;;;17.60;9.17;;;-0.90;99.90;;;;;;5021125;28;20828;-70
2021/01/08 12:19:01;;;;;;;18.60;10.37;;;-0.90;99.90;;;;;;5021371;28;20447;-70
2021/01/08 12:21:28;;;;;;;17.37;11.03;;;-0.80;99.90;;;;;;5022494;28;20423;-70
2021/01/08 12:23:56;;;;;;;30.17;14.57;;;-0.70;99.90;;;;;;5025628;28;20463;-70
2021/01/08 12:26:22;;;;;;;15.97;11.07;;;-0.60;99.90;;;;;;5022655;28;20435;-70
2021/01/08 12:28:50;;;;;;;17.33;10.07;;;-0.50;99.90;;;;;;5012669;28;20437;-71
2021/01/08 12:31:23;;;;;;;23.30;10.97;;;-0.50;99.90;;;;;;5012448;28;20464;-71
2021/01/08 12:33:50;;;;;;;24.80;13.67;;;-0.30;99.90;;;;;;5012751;28;20464;-72
2021/01/08 12:36:17;;;;;;;16.27;11.07;;;-0.30;99.90;;;;;;5012412;28;20428;-70